sensor_id;sensor_type;location;lat;lon;timestamp;pressure;altitude;pressure_sealevel;temperature;humidity
48563;BME280;34981;49.104;11.396;2023-10-19T00:02:09;96338.56;;;6.71;100.00
48563;BME280;34981;49.104;11.396;2023-10-19T00:04:42;96336.25;;;6.63;100.00
48563;BME280;34981;49.104;11.396;2023-10-19T00:07:09;96384.06;;;6.76;100.00
48563;BME280;34981;49.104;11.396;2023-10-19T00:09:43;96380.22;;;6.72;100.00
48563;BME280;34981;49.104;11.396;2023-10-19T00:12:13;96401.97;;;6.64;100.00
48563;BME280;34981;49.104;11.396;2023-10-19T00:14:42;96432.41;;;6.63;100.00
48563;BME280;34981;49.104;11.396;2023-10-19T00:17:09;96440.19;;;6.64;100.00
48563;BME280;34981;49.104;11.396;2023-10-19T00:19:38;96460.38;;;6.60;100.00
48563;BME280;34981;49.104;11.396;2023-10-19T00:22:25;96482.25;;;6.57;100.00
48563;BME280;34981;49.104;11.396;2023-10-19T00:24:53;96501.97;;;6.56;100.00
48563;BME280;34981;49.104;11.396;2023-10-19T00:27:20;96529.03;;;6.60;100.00
48563;BME280;34981;49.104;11.396;2023-10-19T00:29:50;96539.38;;;6.56;100.00
48563;BME280;34981;49.104;11.396;2023-10-19T00:32:22;96552.13;;;6.54;100.00
48563;BME280;34981;49.104;11.396;2023-10-19T00:34:52;96580.47;;;6.55;100.00
48563;BME280;34981;49.104;11.396;2023-10-19T00:37:19;96594.06;;;6.54;100.00
48563;BME280;34981;49.104;11.396;2023-10-19T00:39:59;96612.75;;;6.54;100.00
48563;BME280;34981;49.104;11.396;2023-10-19T00:42:41;96622.03;;;6.51;100.00
48563;BME280;34981;49.104;11.396;2023-10-19T00:45:13;96652.00;;;6.53;100.00
48563;BME280;34981;49.104;11.396;2023-10-19T00:47:40;96675.22;;;6.53;100.00
48563;BME280;34981;49.104;11.396;2023-10-19T00:50:09;96693.69;;;6.54;100.00
48563;BME280;34981;49.104;11.396;2023-10-19T00:52:44;96702.53;;;6.55;100.00
48563;BME280;34981;49.104;11.396;2023-10-19T00:55:16;96721.66;;;6.52;100.00
48563;BME280;34981;49.104;11.396;2023-10-19T00:57:46;96742.00;;;6.53;100.00
48563;BME280;34981;49.104;11.396;2023-10-19T01:00:16;96753.72;;;6.52;100.00
48563;BME280;34981;49.104;11.396;2023-10-19T01:02:57;96767.06;;;6.52;100.00
48563;BME280;34981;49.104;11.396;2023-10-19T01:05:27;96789.63;;;6.56;100.00
48563;BME280;34981;49.104;11.396;2023-10-19T01:08:06;96801.97;;;6.57;100.00
48563;BME280;34981;49.104;11.396;2023-10-19T01:10:50;96820.66;;;6.57;100.00
48563;BME280;34981;49.104;11.396;2023-10-19T01:13:19;96834.44;;;6.54;100.00
48563;BME280;34981;49.104;11.396;2023-10-19T01:15:54;96835.47;;;6.53;100.00
48563;BME280;34981;49.104;11.396;2023-10-19T01:18:23;96841.50;;;6.48;100.00
48563;BME280;34981;49.104;11.396;2023-10-19T01:20:56;96841.72;;;6.47;100.00
48563;BME280;34981;49.104;11.396;2023-10-19T01:23:24;96852.19;;;6.48;100.00
48563;BME280;34981;49.104;11.396;2023-10-19T01:25:56;96866.13;;;6.50;100.00
48563;BME280;34981;49.104;11.396;2023-10-19T01:28:24;96868.66;;;6.45;100.00
48563;BME280;34981;49.104;11.396;2023-10-19T01:31:11;96869.38;;;6.52;100.00
48563;BME280;34981;49.104;11.396;2023-10-19T01:33:43;96883.41;;;6.48;100.00
48563;BME280;34981;49.104;11.396;2023-10-19T01:36:11;96894.53;;;6.45;100.00
48563;BME280;34981;49.104;11.396;2023-10-19T01:38:41;96913.84;;;6.47;100.00
48563;BME280;34981;49.104;11.396;2023-10-19T01:41:09;96935.19;;;6.47;100.00
48563;BME280;34981;49.104;11.396;2023-10-19T01:43:41;96949.53;;;6.52;100.00
48563;BME280;34981;49.104;11.396;2023-10-19T01:46:09;96950.94;;;6.55;100.00
48563;BME280;34981;49.104;11.396;2023-10-19T01:48:40;96962.59;;;6.60;100.00
48563;BME280;34981;49.104;11.396;2023-10-19T01:51:09;96962.25;;;6.57;100.00
48563;BME280;34981;49.104;11.396;2023-10-19T01:53:41;96971.28;;;6.56;100.00
48563;BME280;34981;49.104;11.396;2023-10-19T01:56:13;96982.78;;;6.56;100.00
48563;BME280;34981;49.104;11.396;2023-10-19T01:58:41;96992.66;;;6.56;100.00
48563;BME280;34981;49.104;11.396;2023-10-19T02:01:09;97003.78;;;6.53;100.00
48563;BME280;34981;49.104;11.396;2023-10-19T02:03:36;97016.91;;;6.54;100.00
48563;BME280;34981;49.104;11.396;2023-10-19T02:06:04;97030.88;;;6.56;100.00
48563;BME280;34981;49.104;11.396;2023-10-19T02:11:15;97043.41;;;6.56;100.00
48563;BME280;34981;49.104;11.396;2023-10-19T02:13:46;97057.13;;;6.59;100.00
48563;BME280;34981;49.104;11.396;2023-10-19T02:16:13;97071.31;;;6.60;100.00
48563;BME280;34981;49.104;11.396;2023-10-19T02:18:43;97084.47;;;6.61;100.00
48563;BME280;34981;49.104;11.396;2023-10-19T02:21:11;97085.28;;;6.62;100.00
48563;BME280;34981;49.104;11.396;2023-10-19T02:23:41;97095.38;;;6.60;100.00
48563;BME280;34981;49.104;11.396;2023-10-19T02:26:08;97110.75;;;6.64;100.00
48563;BME280;34981;49.104;11.396;2023-10-19T02:28:36;97128.34;;;6.72;100.00
48563;BME280;34981;49.104;11.396;2023-10-19T02:31:05;97127.31;;;6.73;100.00
48563;BME280;34981;49.104;11.396;2023-10-19T02:33:42;97129.41;;;6.71;100.00
48563;BME280;34981;49.104;11.396;2023-10-19T02:36:13;97133.50;;;6.74;100.00
48563;BME280;34981;49.104;11.396;2023-10-19T02:38:43;97133.50;;;6.74;100.00
48563;BME280;34981;49.104;11.396;2023-10-19T02:41:15;97128.34;;;6.72;100.00
48563;BME280;34981;49.104;11.396;2023-10-19T02:43:44;97134.75;;;6.71;100.00
48563;BME280;34981;49.104;11.396;2023-10-19T02:46:14;97134.97;;;6.70;100.00
48563;BME280;34981;49.104;11.396;2023-10-19T02:48:41;97128.19;;;6.67;100.00
48563;BME280;34981;49.104;11.396;2023-10-19T02:51:12;97105.19;;;6.66;100.00
48563;BME280;34981;49.104;11.396;2023-10-19T02:53:39;97095.75;;;6.63;100.00
48563;BME280;34981;49.104;11.396;2023-10-19T02:56:14;97097.16;;;6.66;100.00
48563;BME280;34981;49.104;11.396;2023-10-19T02:58:46;97076.25;;;6.63;100.00
48563;BME280;34981;49.104;11.396;2023-10-19T03:01:17;97084.25;;;6.63;100.00
48563;BME280;34981;49.104;11.396;2023-10-19T03:03:49;97083.44;;;6.62;100.00
48563;BME280;34981;49.104;11.396;2023-10-19T03:06:17;97096.34;;;6.65;100.00
48563;BME280;34981;49.104;11.396;2023-10-19T03:08:47;97094.50;;;6.66;100.00
48563;BME280;34981;49.104;11.396;2023-10-19T03:11:14;97085.91;;;6.64;100.00
48563;BME280;34981;49.104;11.396;2023-10-19T03:13:41;97085.28;;;6.62;100.00
48563;BME280;34981;49.104;11.396;2023-10-19T03:16:10;97074.44;;;6.57;100.00
48563;BME280;34981;49.104;11.396;2023-10-19T03:18:37;97076.06;;;6.58;100.00
48563;BME280;34981;49.104;11.396;2023-10-19T03:21:05;97083.66;;;6.61;100.00
48563;BME280;34981;49.104;11.396;2023-10-19T03:23:32;97084.06;;;6.58;100.00
48563;BME280;34981;49.104;11.396;2023-10-19T03:26:01;97092.69;;;6.60;100.00
48563;BME280;34981;49.104;11.396;2023-10-19T03:28:51;97083.03;;;6.59;100.00
48563;BME280;34981;49.104;11.396;2023-10-19T03:31:30;97098.66;;;6.62;100.00
48563;BME280;34981;49.104;11.396;2023-10-19T03:34:00;97122.84;;;6.67;100.00
48563;BME280;34981;49.104;11.396;2023-10-19T03:36:31;97109.53;;;6.60;100.00
48563;BME280;34981;49.104;11.396;2023-10-19T03:39:00;97112.63;;;6.64;100.00
48563;BME280;34981;49.104;11.396;2023-10-19T03:41:40;97112.16;;;6.67;100.00
48563;BME280;34981;49.104;11.396;2023-10-19T03:44:11;97124.50;;;6.68;100.00
48563;BME280;34981;49.104;11.396;2023-10-19T03:46:46;97131.63;;;6.74;100.00
48563;BME280;34981;49.104;11.396;2023-10-19T03:49:25;97127.28;;;6.80;100.00
48563;BME280;34981;49.104;11.396;2023-10-19T03:52:00;97127.69;;;6.83;100.00
48563;BME280;34981;49.104;11.396;2023-10-19T03:54:48;97113.06;;;6.86;100.00
48563;BME280;34981;49.104;11.396;2023-10-19T03:57:16;97097.09;;;6.79;100.00
48563;BME280;34981;49.104;11.396;2023-10-19T03:59:47;97098.50;;;6.82;100.00
48563;BME280;34981;49.104;11.396;2023-10-19T04:02:17;97077.97;;;6.76;100.00
48563;BME280;34981;49.104;11.396;2023-10-19T04:04:48;97074.75;;;6.67;100.00
48563;BME280;34981;49.104;11.396;2023-10-19T04:07:16;97096.28;;;6.72;100.00
48563;BME280;34981;49.104;11.396;2023-10-19T04:09:48;97106.34;;;6.77;100.00
48563;BME280;34981;49.104;11.396;2023-10-19T04:12:25;97114.16;;;6.78;100.00
48563;BME280;34981;49.104;11.396;2023-10-19T04:14:52;97162.03;;;6.80;100.00
48563;BME280;34981;49.104;11.396;2023-10-19T04:17:20;97177.69;;;6.76;100.00
48563;BME280;34981;49.104;11.396;2023-10-19T04:19:51;97174.84;;;6.71;100.00
48563;BME280;34981;49.104;11.396;2023-10-19T04:22:18;97187.75;;;6.74;100.00
48563;BME280;34981;49.104;11.396;2023-10-19T04:24:52;97206.06;;;6.77;100.00
48563;BME280;34981;49.104;11.396;2023-10-19T04:27:20;97191.47;;;6.73;100.00
48563;BME280;34981;49.104;11.396;2023-10-19T04:29:50;97184.66;;;6.77;100.00
48563;BME280;34981;49.104;11.396;2023-10-19T04:32:17;97190.63;;;6.79;100.00
48563;BME280;34981;49.104;11.396;2023-10-19T04:34:54;97173.78;;;6.79;100.00
48563;BME280;34981;49.104;11.396;2023-10-19T04:37:21;97173.16;;;6.77;100.00
48563;BME280;34981;49.104;11.396;2023-10-19T04:39:51;97182.81;;;6.78;100.00
48563;BME280;34981;49.104;11.396;2023-10-19T04:42:18;97177.47;;;6.78;100.00
48563;BME280;34981;49.104;11.396;2023-10-19T04:44:49;97176.66;;;6.77;100.00
48563;BME280;34981;49.104;11.396;2023-10-19T04:47:16;97170.03;;;6.80;100.00
48563;BME280;34981;49.104;11.396;2023-10-19T04:49:44;97171.69;;;6.81;100.00
48563;BME280;34981;49.104;11.396;2023-10-19T04:52:11;97180.72;;;6.80;100.00
48563;BME280;34981;49.104;11.396;2023-10-19T04:54:38;97184.84;;;6.82;100.00
48563;BME280;34981;49.104;11.396;2023-10-19T04:57:05;97186.69;;;6.82;100.00
48563;BME280;34981;49.104;11.396;2023-10-19T04:59:32;97183.22;;;6.75;100.00
48563;BME280;34981;49.104;11.396;2023-10-19T05:02:00;97180.41;;;6.70;100.00
48563;BME280;34981;49.104;11.396;2023-10-19T05:04:28;97189.81;;;6.72;100.00
48563;BME280;34981;49.104;11.396;2023-10-19T05:06:57;97193.72;;;6.76;100.00
48563;BME280;34981;49.104;11.396;2023-10-19T05:09:24;97225.38;;;6.79;100.00
48563;BME280;34981;49.104;11.396;2023-10-19T05:11:51;97221.44;;;6.82;100.00
48563;BME280;34981;49.104;11.396;2023-10-19T05:14:20;97213.56;;;6.87;100.00
48563;BME280;34981;49.104;11.396;2023-10-19T05:16:47;97209.50;;;6.84;100.00
48563;BME280;34981;49.104;11.396;2023-10-19T05:19:15;97207.84;;;6.83;100.00
48563;BME280;34981;49.104;11.396;2023-10-19T05:21:43;97212.19;;;6.84;100.00
48563;BME280;34981;49.104;11.396;2023-10-19T05:24:11;97208.69;;;6.84;100.00
48563;BME280;34981;49.104;11.396;2023-10-19T05:26:39;97209.06;;;6.87;100.00
48563;BME280;34981;49.104;11.396;2023-10-19T05:29:06;97222.22;;;6.89;100.00
48563;BME280;34981;49.104;11.396;2023-10-19T05:31:33;97219.31;;;6.90;100.00
48563;BME280;34981;49.104;11.396;2023-10-19T05:34:00;97222.63;;;6.92;100.00
48563;BME280;34981;49.104;11.396;2023-10-19T05:36:27;97222.22;;;6.89;100.00
48563;BME280;34981;49.104;11.396;2023-10-19T05:38:58;97221.38;;;6.88;100.00
48563;BME280;34981;49.104;11.396;2023-10-19T05:41:25;97220.19;;;6.84;100.00
48563;BME280;34981;49.104;11.396;2023-10-19T05:43:53;97220.19;;;6.84;100.00
48563;BME280;34981;49.104;11.396;2023-10-19T05:46:20;97231.25;;;6.88;100.00
48563;BME280;34981;49.104;11.396;2023-10-19T05:48:49;97227.38;;;6.84;100.00
48563;BME280;34981;49.104;11.396;2023-10-19T05:51:16;97224.50;;;6.85;100.00
48563;BME280;34981;49.104;11.396;2023-10-19T05:53:44;97226.56;;;6.83;100.00
48563;BME280;34981;49.104;11.396;2023-10-19T05:56:11;97232.53;;;6.85;100.00
48563;BME280;34981;49.104;11.396;2023-10-19T05:58:38;97241.56;;;6.84;100.00
48563;BME280;34981;49.104;11.396;2023-10-19T06:01:06;97233.19;;;6.74;100.00
48563;BME280;34981;49.104;11.396;2023-10-19T06:03:33;97229.69;;;6.74;100.00
48563;BME280;34981;49.104;11.396;2023-10-19T06:06:00;97225.63;;;6.71;100.00
48563;BME280;34981;49.104;11.396;2023-10-19T06:08:27;97232.00;;;6.70;100.00
48563;BME280;34981;49.104;11.396;2023-10-19T06:10:55;97228.53;;;6.63;100.00
48563;BME280;34981;49.104;11.396;2023-10-19T06:13:23;97232.00;;;6.70;100.00
48563;BME280;34981;49.104;11.396;2023-10-19T06:15:50;97239.56;;;6.73;100.00
48563;BME280;34981;49.104;11.396;2023-10-19T06:18:19;97239.16;;;6.76;100.00
48563;BME280;34981;49.104;11.396;2023-10-19T06:20:46;97246.31;;;6.82;100.00
48563;BME280;34981;49.104;11.396;2023-10-19T06:23:14;97251.81;;;6.87;100.00
48563;BME280;34981;49.104;11.396;2023-10-19T06:25:41;97247.94;;;6.83;100.00
48563;BME280;34981;49.104;11.396;2023-10-19T06:28:10;97253.91;;;6.85;100.00
48563;BME280;34981;49.104;11.396;2023-10-19T06:30:40;97252.44;;;6.89;100.00
48563;BME280;34981;49.104;11.396;2023-10-19T06:33:07;97256.13;;;6.88;100.00
48563;BME280;34981;49.104;11.396;2023-10-19T06:35:34;97270.69;;;6.99;100.00
48563;BME280;34981;49.104;11.396;2023-10-19T06:38:04;97283.81;;;7.07;100.00
48563;BME280;34981;49.104;11.396;2023-10-19T06:40:33;97303.06;;;7.22;100.00
48563;BME280;34981;49.104;11.396;2023-10-19T06:43:00;97314.47;;;7.36;100.00
48563;BME280;34981;49.104;11.396;2023-10-19T06:45:29;97322.25;;;7.44;100.00
48563;BME280;34981;49.104;11.396;2023-10-19T06:47:57;97343.09;;;7.67;100.00
48563;BME280;34981;49.104;11.396;2023-10-19T06:50:24;97337.34;;;7.63;100.00
48563;BME280;34981;49.104;11.396;2023-10-19T06:52:52;97341.22;;;7.67;100.00
48563;BME280;34981;49.104;11.396;2023-10-19T06:55:21;97356.47;;;7.92;100.00
48563;BME280;34981;49.104;11.396;2023-10-19T06:57:51;97380.31;;;8.25;100.00
48563;BME280;34981;49.104;11.396;2023-10-19T07:00:20;97355.31;;;8.06;100.00
48563;BME280;34981;49.104;11.396;2023-10-19T07:02:56;97387.66;;;8.36;100.00
48563;BME280;34981;49.104;11.396;2023-10-19T07:05:24;97358.06;;;8.24;100.00
48563;BME280;34981;49.104;11.396;2023-10-19T07:07:52;97338.75;;;8.15;100.00
48563;BME280;34981;49.104;11.396;2023-10-19T07:10:22;97336.69;;;8.17;100.00
48563;BME280;34981;49.104;11.396;2023-10-19T07:12:53;97330.66;;;8.22;100.00
48563;BME280;34981;49.104;11.396;2023-10-19T07:15:21;97322.41;;;8.24;100.00
48563;BME280;34981;49.104;11.396;2023-10-19T07:17:49;97358.72;;;8.63;100.00
48563;BME280;34981;49.104;11.396;2023-10-19T07:20:19;97331.16;;;8.55;100.00
48563;BME280;34981;49.104;11.396;2023-10-19T07:22:57;97341.81;;;8.80;100.00
48563;BME280;34981;49.104;11.396;2023-10-19T07:25:27;97308.69;;;8.56;100.00
48563;BME280;34981;49.104;11.396;2023-10-19T07:27:54;97288.44;;;8.42;100.00
48563;BME280;34981;49.104;11.396;2023-10-19T07:30:22;97289.66;;;8.46;100.00
48563;BME280;34981;49.104;11.396;2023-10-19T07:32:53;97298.25;;;8.67;100.00
48563;BME280;34981;49.104;11.396;2023-10-19T07:35:26;97287.25;;;8.75;100.00
48563;BME280;34981;49.104;11.396;2023-10-19T07:37:54;97295.56;;;8.85;100.00
48563;BME280;34981;49.104;11.396;2023-10-19T07:40:24;97287.88;;;8.88;100.00
48563;BME280;34981;49.104;11.396;2023-10-19T07:42:51;97285.63;;;9.04;100.00
48563;BME280;34981;49.104;11.396;2023-10-19T07:45:21;97259.03;;;9.02;100.00
48563;BME280;34981;49.104;11.396;2023-10-19T07:47:48;97238.19;;;8.86;100.00
48563;BME280;34981;49.104;11.396;2023-10-19T07:50:16;97224.28;;;8.77;100.00
48563;BME280;34981;49.104;11.396;2023-10-19T07:52:43;97226.91;;;8.84;100.00
48563;BME280;34981;49.104;11.396;2023-10-19T07:55:10;97232.44;;;9.01;100.00
48563;BME280;34981;49.104;11.396;2023-10-19T07:57:38;97211.78;;;9.01;100.00
48563;BME280;34981;49.104;11.396;2023-10-19T08:00:08;97186.34;;;8.92;100.00
48563;BME280;34981;49.104;11.396;2023-10-19T08:02:36;97152.63;;;8.84;100.00
48563;BME280;34981;49.104;11.396;2023-10-19T08:05:04;97139.81;;;8.86;100.00
48563;BME280;34981;49.104;11.396;2023-10-19T08:07:34;97143.31;;;8.98;100.00
48563;BME280;34981;49.104;11.396;2023-10-19T08:10:01;97153.88;;;9.12;100.00
48563;BME280;34981;49.104;11.396;2023-10-19T08:12:30;97134.94;;;9.07;100.00
48563;BME280;34981;49.104;11.396;2023-10-19T08:14:58;97103.09;;;8.98;100.00
48563;BME280;34981;49.104;11.396;2023-10-19T08:17:25;97101.38;;;9.04;100.00
48563;BME280;34981;49.104;11.396;2023-10-19T08:19:52;97073.72;;;8.92;100.00
48563;BME280;34981;49.104;11.396;2023-10-19T08:22:19;97083.31;;;9.11;100.00
48563;BME280;34981;49.104;11.396;2023-10-19T08:24:46;97067.22;;;9.11;100.00
48563;BME280;34981;49.104;11.396;2023-10-19T08:27:14;97064.53;;;9.11;100.00
48563;BME280;34981;49.104;11.396;2023-10-19T08:29:41;97041.31;;;9.05;100.00
48563;BME280;34981;49.104;11.396;2023-10-19T08:32:08;97039.53;;;8.99;100.00
48563;BME280;34981;49.104;11.396;2023-10-19T08:34:35;97052.97;;;9.22;100.00
48563;BME280;34981;49.104;11.396;2023-10-19T08:37:03;97050.03;;;9.35;100.00
48563;BME280;34981;49.104;11.396;2023-10-19T08:39:33;97046.31;;;9.36;100.00
48563;BME280;34981;49.104;11.396;2023-10-19T08:42:03;97044.81;;;9.41;100.00
48563;BME280;34981;49.104;11.396;2023-10-19T08:44:31;97034.06;;;9.41;100.00
48563;BME280;34981;49.104;11.396;2023-10-19T08:46:59;97040.44;;;9.51;100.00
48563;BME280;34981;49.104;11.396;2023-10-19T08:49:27;97042.44;;;9.56;100.00
48563;BME280;34981;49.104;11.396;2023-10-19T08:51:54;97029.13;;;9.61;100.00
48563;BME280;34981;49.104;11.396;2023-10-19T08:54:23;97036.53;;;9.82;100.00
48563;BME280;34981;49.104;11.396;2023-10-19T08:56:50;97012.28;;;9.77;100.00
48563;BME280;34981;49.104;11.396;2023-10-19T08:59:17;96999.41;;;9.79;100.00
48563;BME280;34981;49.104;11.396;2023-10-19T09:01:44;96997.75;;;9.90;100.00
48563;BME280;34981;49.104;11.396;2023-10-19T09:04:11;97003.06;;;10.01;100.00
48563;BME280;34981;49.104;11.396;2023-10-19T09:06:40;97002.22;;;10.12;100.00
48563;BME280;34981;49.104;11.396;2023-10-19T09:09:10;97002.00;;;10.31;100.00
48563;BME280;34981;49.104;11.396;2023-10-19T09:11:43;96987.19;;;10.45;100.00
48563;BME280;34981;49.104;11.396;2023-10-19T09:14:11;96971.59;;;10.42;100.00
48563;BME280;34981;49.104;11.396;2023-10-19T09:16:55;96961.97;;;10.46;100.00
48563;BME280;34981;49.104;11.396;2023-10-19T09:22:05;96944.19;;;10.62;100.00
48563;BME280;34981;49.104;11.396;2023-10-19T09:24:51;96933.22;;;10.63;100.00
48563;BME280;34981;49.104;11.396;2023-10-19T09:27:20;96921.06;;;10.61;100.00
48563;BME280;34981;49.104;11.396;2023-10-19T09:29:48;96913.91;;;10.66;100.00
48563;BME280;34981;49.104;11.396;2023-10-19T09:32:15;96894.50;;;10.64;100.00
48563;BME280;34981;49.104;11.396;2023-10-19T09:34:44;96889.94;;;10.65;100.00
48563;BME280;34981;49.104;11.396;2023-10-19T09:37:11;96897.41;;;10.79;100.00
48563;BME280;34981;49.104;11.396;2023-10-19T09:39:40;96892.69;;;10.86;100.00
48563;BME280;34981;49.104;11.396;2023-10-19T09:42:10;96866.19;;;10.78;100.00
48563;BME280;34981;49.104;11.396;2023-10-19T09:44:41;96861.31;;;10.75;100.00
48563;BME280;34981;49.104;11.396;2023-10-19T09:47:12;96837.63;;;10.72;100.00
48563;BME280;34981;49.104;11.396;2023-10-19T09:49:41;96842.25;;;10.77;100.00
48563;BME280;34981;49.104;11.396;2023-10-19T09:52:10;96833.34;;;10.76;100.00
48563;BME280;34981;49.104;11.396;2023-10-19T09:54:42;96821.25;;;10.74;100.00
48563;BME280;34981;49.104;11.396;2023-10-19T09:57:17;96809.66;;;10.73;100.00
48563;BME280;34981;49.104;11.396;2023-10-19T09:59:46;96811.78;;;10.71;100.00
48563;BME280;34981;49.104;11.396;2023-10-19T10:02:16;96806.47;;;10.76;100.00
48563;BME280;34981;49.104;11.396;2023-10-19T10:04:45;96810.84;;;10.82;100.00
48563;BME280;34981;49.104;11.396;2023-10-19T10:07:13;96799.06;;;10.88;100.00
48563;BME280;34981;49.104;11.396;2023-10-19T10:09:46;96781.06;;;10.89;100.00
48563;BME280;34981;49.104;11.396;2023-10-19T10:14:54;96764.66;;;10.90;100.00
48563;BME280;34981;49.104;11.396;2023-10-19T10:17:23;96743.06;;;10.80;100.00
48563;BME280;34981;49.104;11.396;2023-10-19T10:19:53;96739.56;;;10.80;100.00
48563;BME280;34981;49.104;11.396;2023-10-19T10:22:21;96723.34;;;10.75;100.00
48563;BME280;34981;49.104;11.396;2023-10-19T10:24:53;96715.72;;;10.67;100.00
48563;BME280;34981;49.104;11.396;2023-10-19T10:27:21;96724.66;;;10.72;100.00
48563;BME280;34981;49.104;11.396;2023-10-19T10:29:58;96729.53;;;10.75;100.00
48563;BME280;34981;49.104;11.396;2023-10-19T10:37:57;96719.09;;;10.79;100.00
48563;BME280;34981;49.104;11.396;2023-10-19T10:40:25;96724.22;;;10.80;100.00
48563;BME280;34981;49.104;11.396;2023-10-19T10:43:04;96719.53;;;10.71;100.00
48563;BME280;34981;49.104;11.396;2023-10-19T10:45:31;96716.53;;;10.67;100.00
48563;BME280;34981;49.104;11.396;2023-10-19T10:47:58;96733.78;;;10.71;100.00
48563;BME280;34981;49.104;11.396;2023-10-19T10:50:28;96737.06;;;10.73;100.00
48563;BME280;34981;49.104;11.396;2023-10-19T10:52:58;96739.19;;;10.71;100.00
48563;BME280;34981;49.104;11.396;2023-10-19T10:55:25;96747.63;;;10.80;100.00
48563;BME280;34981;49.104;11.396;2023-10-19T10:57:52;96748.91;;;10.77;100.00
48563;BME280;34981;49.104;11.396;2023-10-19T11:00:21;96750.84;;;10.82;100.00
48563;BME280;34981;49.104;11.396;2023-10-19T11:03:27;96754.31;;;10.77;100.00
48563;BME280;34981;49.104;11.396;2023-10-19T11:05:48;96733.91;;;10.81;100.00
48563;BME280;34981;49.104;11.396;2023-10-19T11:08:16;96765.72;;;10.89;100.00
48563;BME280;34981;49.104;11.396;2023-10-19T11:10:45;96778.81;;;11.03;100.00
48563;BME280;34981;49.104;11.396;2023-10-19T11:13:16;96791.78;;;11.11;100.00
48563;BME280;34981;49.104;11.396;2023-10-19T11:21:00;96795.00;;;11.08;100.00
48563;BME280;34981;49.104;11.396;2023-10-19T11:23:35;96805.34;;;11.16;100.00
48563;BME280;34981;49.104;11.396;2023-10-19T11:26:02;96822.59;;;11.20;100.00
48563;BME280;34981;49.104;11.396;2023-10-19T11:28:32;96841.50;;;11.25;100.00
48563;BME280;34981;49.104;11.396;2023-10-19T11:31:13;96840.41;;;11.26;100.00
48563;BME280;34981;49.104;11.396;2023-10-19T11:33:41;96836.13;;;11.25;100.00
48563;BME280;34981;49.104;11.396;2023-10-19T11:36:10;96851.78;;;11.33;100.00
48563;BME280;34981;49.104;11.396;2023-10-19T11:38:39;96856.44;;;11.38;100.00
48563;BME280;34981;49.104;11.396;2023-10-19T11:41:07;96858.81;;;11.34;100.00
48563;BME280;34981;49.104;11.396;2023-10-19T11:43:35;96879.91;;;11.42;100.00
48563;BME280;34981;49.104;11.396;2023-10-19T11:46:02;96904.13;;;11.64;100.00
48563;BME280;34981;49.104;11.396;2023-10-19T11:48:33;96926.72;;;11.85;100.00
48563;BME280;34981;49.104;11.396;2023-10-19T11:51:01;96918.72;;;11.90;100.00
48563;BME280;34981;49.104;11.396;2023-10-19T11:53:31;96925.22;;;11.94;100.00
48563;BME280;34981;49.104;11.396;2023-10-19T11:56:01;96912.19;;;11.86;100.00
48563;BME280;34981;49.104;11.396;2023-10-19T11:58:28;96913.25;;;11.85;100.00
48563;BME280;34981;49.104;11.396;2023-10-19T12:00:55;96922.47;;;11.89;100.00
48563;BME280;34981;49.104;11.396;2023-10-19T12:03:22;96922.97;;;11.86;100.00
48563;BME280;34981;49.104;11.396;2023-10-19T12:05:50;96918.34;;;11.81;100.00
48563;BME280;34981;49.104;11.396;2023-10-19T12:08:23;96933.53;;;11.92;100.00
48563;BME280;34981;49.104;11.396;2023-10-19T12:10:50;96931.91;;;11.91;100.00
48563;BME280;34981;49.104;11.396;2023-10-19T12:13:17;96936.78;;;11.94;100.00
48563;BME280;34981;49.104;11.396;2023-10-19T12:15:44;96942.50;;;11.98;100.00
48563;BME280;34981;49.104;11.396;2023-10-19T12:18:18;96947.16;;;12.07;100.00
48563;BME280;34981;49.104;11.396;2023-10-19T12:20:47;96955.81;;;12.09;100.00
48563;BME280;34981;49.104;11.396;2023-10-19T12:23:14;96943.84;;;12.00;100.00
48563;BME280;34981;49.104;11.396;2023-10-19T12:25:41;96949.00;;;12.02;100.00
48563;BME280;34981;49.104;11.396;2023-10-19T12:28:16;96946.31;;;12.02;100.00
48563;BME280;34981;49.104;11.396;2023-10-19T12:30:43;96957.59;;;11.99;100.00
48563;BME280;34981;49.104;11.396;2023-10-19T12:33:10;96958.16;;;12.01;100.00
48563;BME280;34981;49.104;11.396;2023-10-19T12:35:41;96957.09;;;12.02;100.00
48563;BME280;34981;49.104;11.396;2023-10-19T12:38:12;96967.38;;;12.05;100.00
48563;BME280;34981;49.104;11.396;2023-10-19T12:40:43;96972.28;;;12.13;100.00
48563;BME280;34981;49.104;11.396;2023-10-19T12:43:11;96978.25;;;12.15;100.00
48563;BME280;34981;49.104;11.396;2023-10-19T12:45:39;96977.66;;;12.13;100.00
48563;BME280;34981;49.104;11.396;2023-10-19T12:48:07;96988.44;;;12.13;100.00
48563;BME280;34981;49.104;11.396;2023-10-19T12:50:34;96985.81;;;12.18;100.00
48563;BME280;34981;49.104;11.396;2023-10-19T12:53:02;96991.16;;;12.13;100.00
48563;BME280;34981;49.104;11.396;2023-10-19T12:55:30;96997.72;;;12.22;100.00
48563;BME280;34981;49.104;11.396;2023-10-19T12:57:58;97016.09;;;12.25;100.00
48563;BME280;34981;49.104;11.396;2023-10-19T13:00:27;97009.63;;;12.26;100.00
48563;BME280;34981;49.104;11.396;2023-10-19T13:02:59;97017.78;;;12.31;100.00
48563;BME280;34981;49.104;11.396;2023-10-19T13:05:27;97034.84;;;12.42;100.00
48563;BME280;34981;49.104;11.396;2023-10-19T13:07:54;97048.19;;;12.54;100.00
48563;BME280;34981;49.104;11.396;2023-10-19T13:10:31;97040.09;;;12.54;100.00
48563;BME280;34981;49.104;11.396;2023-10-19T13:13:02;97035.78;;;12.53;100.00
48563;BME280;34981;49.104;11.396;2023-10-19T13:15:32;97040.91;;;12.54;100.00
48563;BME280;34981;49.104;11.396;2023-10-19T13:18:05;97038.22;;;12.54;100.00
48563;BME280;34981;49.104;11.396;2023-10-19T13:20:34;97040.91;;;12.54;100.00